createdAt,value
2023-02-05T00:02:39.104Z,2.07
2023-02-05T00:05:42.306Z,1.38
2023-02-05T00:08:45.272Z,2.08
2023-02-05T00:11:47.877Z,1.10
2023-02-05T00:14:50.383Z,1.73
2023-02-05T00:17:53.030Z,1.77
2023-02-05T00:20:55.903Z,1.75
2023-02-05T00:23:58.470Z,1.60
2023-02-05T00:27:01.177Z,1.33
2023-02-05T00:30:04.302Z,0.93
2023-02-05T00:33:07.055Z,1.80
2023-02-05T00:36:12.669Z,1.20
2023-02-05T00:39:16.337Z,1.35
2023-02-05T00:42:19.013Z,1.38
2023-02-05T00:45:21.642Z,2.33
2023-02-05T00:48:24.678Z,1.58
2023-02-05T00:51:29.214Z,1.52
2023-02-05T00:54:31.881Z,2.03
2023-02-05T00:57:34.816Z,3.08
2023-02-05T01:00:38.215Z,1.40
2023-02-05T01:03:42.270Z,2.50
2023-02-05T01:06:44.997Z,2.33
2023-02-05T01:09:48.117Z,2.28
2023-02-05T01:12:50.754Z,2.15
2023-02-05T01:15:53.553Z,1.73
2023-02-05T01:18:56.914Z,1.20
2023-02-05T01:21:59.699Z,0.98
2023-02-05T01:25:02.930Z,0.63
2023-02-05T01:28:07.063Z,0.85
2023-02-05T01:31:09.977Z,1.00
2023-02-05T01:34:12.743Z,0.53
2023-02-05T01:37:15.428Z,0.80
2023-02-05T01:40:19.714Z,0.10
2023-02-05T01:43:22.237Z,0.63
2023-02-05T01:46:30.000Z,0.70
2023-02-05T01:49:41.297Z,0.80
2023-02-05T01:52:44.571Z,0.93
2023-02-05T01:55:54.766Z,0.53
2023-02-05T01:59:02.722Z,1.25
2023-02-05T02:02:08.060Z,1.02
2023-02-05T02:05:13.826Z,1.17
2023-02-05T02:08:16.623Z,0.68
2023-02-05T02:11:22.512Z,0.88
2023-02-05T02:14:27.898Z,1.02
2023-02-05T02:17:34.745Z,1.42
2023-02-05T02:20:42.245Z,0.30
2023-02-05T02:24:22.909Z,0.85
2023-02-05T02:27:50.737Z,0.50
2023-02-05T02:31:15.000Z,0.40
2023-02-05T02:34:44.758Z,0.88
2023-02-05T02:38:01.276Z,0.77
2023-02-05T02:41:18.136Z,0.75
2023-02-05T02:44:33.325Z,0.40
2023-02-05T02:47:47.120Z,1.17
2023-02-05T02:50:53.696Z,0.35
2023-02-05T02:53:59.073Z,0.70
2023-02-05T02:57:06.499Z,1.00
2023-02-05T03:00:14.688Z,1.40
2023-02-05T03:03:21.234Z,1.08
2023-02-05T03:06:25.339Z,1.20
2023-02-05T03:09:39.788Z,1.30
2023-02-05T03:12:43.374Z,1.70
2023-02-05T03:15:47.258Z,0.75
2023-02-05T03:18:50.759Z,1.10
2023-02-05T03:22:03.079Z,0.70
2023-02-05T03:25:06.416Z,0.85
2023-02-05T03:28:11.103Z,1.20
2023-02-05T03:31:28.221Z,1.23
2023-02-05T03:34:57.810Z,0.60
2023-02-05T03:38:27.854Z,0.88
2023-02-05T03:41:52.894Z,1.33
2023-02-05T03:45:41.741Z,0.90
2023-02-05T03:49:18.847Z,1.15
2023-02-05T03:52:28.022Z,2.05
2023-02-05T03:55:37.837Z,1.10
2023-02-05T03:58:45.949Z,1.10
2023-02-05T04:01:51.283Z,1.60
2023-02-05T04:04:54.615Z,1.10
2023-02-05T04:07:57.626Z,1.48
2023-02-05T04:11:05.618Z,0.90
2023-02-05T04:14:09.306Z,0.80
2023-02-05T04:17:14.021Z,0.88
2023-02-05T04:20:18.388Z,1.75
2023-02-05T04:23:21.174Z,1.67
2023-02-05T04:26:32.866Z,1.38
2023-02-05T04:29:39.590Z,0.95
2023-02-05T04:32:43.214Z,1.15
2023-02-05T04:35:46.501Z,0.80
2023-02-05T04:38:49.858Z,1.20
2023-02-05T04:41:52.471Z,1.13
2023-02-05T04:44:55.658Z,1.00
2023-02-05T04:47:59.604Z,1.10
2023-02-05T04:51:20.590Z,1.27
2023-02-05T04:54:23.323Z,1.15
2023-02-05T04:57:25.998Z,1.33
2023-02-05T05:00:28.839Z,1.15
2023-02-05T05:03:31.907Z,1.30
2023-02-05T05:06:34.972Z,1.50
2023-02-05T05:09:38.222Z,2.05
2023-02-05T05:12:40.883Z,1.30
2023-02-05T05:15:43.785Z,1.90
2023-02-05T05:18:47.299Z,1.67
2023-02-05T05:21:50.162Z,1.67
2023-02-05T05:24:52.980Z,1.90
2023-02-05T05:27:55.510Z,1.50
2023-02-05T05:30:58.263Z,1.45
2023-02-05T05:34:01.473Z,1.58
2023-02-05T05:37:04.169Z,1.43
2023-02-05T05:40:25.954Z,1.77
2023-02-05T05:43:46.590Z,1.33
2023-02-05T05:46:49.487Z,1.83
2023-02-05T05:49:52.587Z,1.20
2023-02-05T05:52:55.746Z,1.40
2023-02-05T05:55:58.297Z,1.55
2023-02-05T05:59:01.246Z,2.40
2023-02-05T06:02:05.140Z,1.77
2023-02-05T06:05:08.333Z,1.70
2023-02-05T06:08:10.830Z,1.53
2023-02-05T06:11:14.088Z,3.03
2023-02-05T06:14:17.088Z,2.15
2023-02-05T06:17:20.090Z,2.47
2023-02-05T06:20:22.971Z,1.75
2023-02-05T06:23:26.106Z,2.30
2023-02-05T06:26:28.905Z,3.47
2023-02-05T06:29:31.468Z,2.58
2023-02-05T06:32:34.280Z,3.58
2023-02-05T06:35:37.162Z,3.45
2023-02-05T06:38:40.196Z,2.10
2023-02-05T06:41:43.207Z,1.70
2023-02-05T06:44:45.654Z,2.25
2023-02-05T06:47:48.790Z,1.80
2023-02-05T06:50:51.707Z,1.63
2023-02-05T06:53:57.580Z,2.45
2023-02-05T06:57:00.243Z,2.47
2023-02-05T07:00:03.859Z,2.88
2023-02-05T07:03:06.760Z,3.50
2023-02-05T07:06:11.006Z,2.95
2023-02-05T07:09:13.415Z,2.50
2023-02-05T07:12:16.503Z,2.75
2023-02-05T07:15:18.943Z,1.52
2023-02-05T07:18:21.910Z,1.93
2023-02-05T07:21:24.878Z,1.77
2023-02-05T07:24:27.704Z,2.08
2023-02-05T07:27:30.936Z,2.90
2023-02-05T07:30:36.176Z,2.65
2023-02-05T07:33:38.791Z,3.53
2023-02-05T07:36:41.875Z,4.05
2023-02-05T07:39:44.519Z,5.67
2023-02-05T07:42:47.145Z,4.95
2023-02-05T07:45:58.024Z,3.08
2023-02-05T07:49:01.067Z,2.83
2023-02-05T07:52:04.081Z,3.97
2023-02-05T07:55:07.015Z,2.90
2023-02-05T07:58:09.829Z,3.40
2023-02-05T08:01:12.561Z,4.38
2023-02-05T08:04:15.295Z,3.17
2023-02-05T08:07:17.880Z,2.00
2023-02-05T08:10:21.013Z,1.80
2023-02-05T08:13:23.714Z,1.13
2023-02-05T08:16:26.317Z,1.60
2023-02-05T08:19:29.113Z,2.20
2023-02-05T08:22:32.034Z,1.88
2023-02-05T08:25:35.006Z,1.88
2023-02-05T08:28:38.012Z,0.93
2023-02-05T08:31:40.693Z,1.58
2023-02-05T08:34:43.570Z,2.58
2023-02-05T08:37:46.874Z,2.05
2023-02-05T08:40:49.562Z,1.83
2023-02-05T08:43:52.495Z,2.78
2023-02-05T08:46:55.026Z,3.75
2023-02-05T08:49:57.850Z,3.23
2023-02-05T08:53:00.384Z,2.28
2023-02-05T08:56:05.559Z,2.72
2023-02-05T08:59:09.153Z,1.42
2023-02-05T09:02:16.067Z,3.00
2023-02-05T09:05:18.569Z,2.95
2023-02-05T09:08:21.967Z,1.88
2023-02-05T09:11:26.833Z,2.93
2023-02-05T09:14:36.425Z,1.77
2023-02-05T09:17:39.011Z,1.33
2023-02-05T09:20:44.580Z,1.80
2023-02-05T09:23:47.633Z,1.55
2023-02-05T09:26:50.337Z,2.92
2023-02-05T09:29:53.164Z,3.00
2023-02-05T09:32:56.052Z,4.60
2023-02-05T09:35:58.821Z,2.65
2023-02-05T09:39:14.146Z,3.58
2023-02-05T09:42:31.900Z,4.87
2023-02-05T09:46:02.089Z,4.43
2023-02-05T09:49:17.220Z,2.95
2023-02-05T09:52:38.940Z,3.30
2023-02-05T09:55:47.288Z,2.33
2023-02-05T09:58:51.996Z,2.42
2023-02-05T10:01:59.274Z,2.58
2023-02-05T10:05:02.526Z,2.53
2023-02-05T10:08:12.191Z,1.48
2023-02-05T10:11:47.395Z,1.52
2023-02-05T10:15:27.085Z,2.20
2023-02-05T10:18:42.131Z,1.85
2023-02-05T10:22:11.028Z,1.55
2023-02-05T10:25:35.160Z,1.07
2023-02-05T10:28:44.225Z,1.55
2023-02-05T10:32:09.140Z,1.55
2023-02-05T10:35:44.465Z,1.92
2023-02-05T10:38:48.793Z,2.35
2023-02-05T10:42:05.007Z,2.58
2023-02-05T10:45:19.297Z,1.63
2023-02-05T10:48:24.959Z,1.20
2023-02-05T10:51:46.280Z,1.88
2023-02-05T10:54:49.395Z,2.50
2023-02-05T10:57:52.338Z,1.57
2023-02-05T11:00:55.330Z,1.17
2023-02-05T11:04:15.305Z,1.00
2023-02-05T11:07:39.352Z,1.67
2023-02-05T11:10:42.366Z,1.98
2023-02-05T11:13:51.691Z,2.30
2023-02-05T11:16:54.277Z,1.23
2023-02-05T11:20:01.128Z,0.90
2023-02-05T11:23:08.598Z,0.82
2023-02-05T11:26:22.590Z,1.63
2023-02-05T11:29:25.450Z,1.50
2023-02-05T11:32:37.294Z,1.02
2023-02-05T11:35:40.303Z,1.42
2023-02-05T11:38:44.795Z,1.70
2023-02-05T11:41:52.185Z,1.20
2023-02-05T11:44:57.941Z,0.60
2023-02-05T11:48:04.358Z,0.98
2023-02-05T11:51:10.105Z,0.50
2023-02-05T11:54:32.873Z,1.20
2023-02-05T11:57:39.062Z,1.52
2023-02-05T12:00:57.777Z,0.63
2023-02-05T12:04:16.802Z,1.02
2023-02-05T12:07:22.039Z,1.05
2023-02-05T12:11:02.402Z,0.77
2023-02-05T12:14:42.091Z,0.60
2023-02-05T12:18:03.408Z,0.60
2023-02-05T12:21:42.168Z,1.05
2023-02-05T12:24:59.663Z,0.67
2023-02-05T12:28:11.626Z,0.77
2023-02-05T12:31:40.021Z,0.63
2023-02-05T12:34:46.012Z,1.50
2023-02-05T12:38:03.850Z,1.10
2023-02-05T12:41:42.904Z,1.45
2023-02-05T12:45:04.451Z,2.35
2023-02-05T12:48:25.726Z,3.15
2023-02-05T12:51:31.058Z,1.58
2023-02-05T12:54:42.871Z,2.05
2023-02-05T12:58:01.561Z,1.80
2023-02-05T13:01:13.184Z,0.98
2023-02-05T13:04:25.166Z,1.80
2023-02-05T13:07:33.860Z,1.20
2023-02-05T13:10:43.296Z,2.38
2023-02-05T13:14:10.028Z,1.27
2023-02-05T13:17:17.778Z,1.00
2023-02-05T13:20:51.841Z,2.05
2023-02-05T13:24:22.924Z,1.20
2023-02-05T13:27:49.432Z,1.20
2023-02-05T13:30:55.991Z,1.33
2023-02-05T13:34:04.649Z,0.88
2023-02-05T13:37:44.660Z,0.88
2023-02-05T13:40:56.923Z,1.27
2023-02-05T13:44:20.777Z,0.70
2023-02-05T13:47:48.315Z,1.10
2023-02-05T13:51:25.362Z,2.03
2023-02-05T13:55:01.094Z,1.38
2023-02-05T13:58:25.194Z,0.70
2023-02-05T14:01:34.584Z,0.93
2023-02-05T14:04:42.364Z,1.50
2023-02-05T14:07:46.168Z,1.35
2023-02-05T14:10:58.451Z,1.75
2023-02-05T14:14:37.546Z,2.10
2023-02-05T14:17:52.434Z,1.40
2023-02-05T14:20:55.674Z,1.25
2023-02-05T14:24:02.822Z,1.58
2023-02-05T14:27:42.429Z,1.40
2023-02-05T14:31:01.245Z,1.80
2023-02-05T14:34:45.908Z,1.70
2023-02-05T14:37:49.694Z,0.90
2023-02-05T14:41:14.439Z,1.40
2023-02-05T14:44:23.912Z,2.15
2023-02-05T14:47:36.039Z,0.80
2023-02-05T14:50:40.662Z,0.50
2023-02-05T14:54:15.800Z,0.82
2023-02-05T14:57:24.338Z,1.90
2023-02-05T15:00:32.407Z,1.13
2023-02-05T15:03:40.010Z,1.30
2023-02-05T15:06:43.680Z,1.10
2023-02-05T15:10:18.789Z,2.37
2023-02-05T15:13:23.394Z,1.27
2023-02-05T15:16:26.082Z,1.30
2023-02-05T15:19:30.020Z,1.10
2023-02-05T15:22:44.195Z,1.42
2023-02-05T15:26:02.883Z,0.68
2023-02-05T15:29:29.401Z,1.30
2023-02-05T15:32:48.499Z,1.27
2023-02-05T15:35:52.833Z,2.25
2023-02-05T15:39:25.629Z,1.70
2023-02-05T15:42:38.436Z,2.33
2023-02-05T15:45:45.127Z,2.17
2023-02-05T15:48:47.827Z,1.17
2023-02-05T15:51:50.706Z,1.03
2023-02-05T15:54:57.109Z,1.63
2023-02-05T15:58:05.434Z,2.42
2023-02-05T16:01:08.170Z,1.85
2023-02-05T16:04:29.378Z,2.63
2023-02-05T16:07:40.594Z,1.10
2023-02-05T16:10:54.418Z,1.70
2023-02-05T16:14:13.648Z,1.83
2023-02-05T16:17:26.349Z,1.42
2023-02-05T16:20:35.506Z,2.75
2023-02-05T16:23:55.877Z,4.47
2023-02-05T16:27:10.976Z,2.15
2023-02-05T16:30:40.474Z,1.77
2023-02-05T16:33:48.188Z,1.02
2023-02-05T16:36:52.697Z,1.25
2023-02-05T16:39:57.134Z,3.05
2023-02-05T16:43:00.528Z,1.90
2023-02-05T16:46:06.438Z,1.67
2023-02-05T16:49:25.710Z,2.97
2023-02-05T16:52:34.517Z,7.30
2023-02-05T16:55:41.358Z,4.63
2023-02-05T16:58:46.928Z,7.88
2023-02-05T17:01:51.245Z,3.00
2023-02-05T17:04:57.706Z,4.72
2023-02-05T17:08:09.706Z,1.95
2023-02-05T17:11:38.140Z,1.42
2023-02-05T17:14:55.976Z,2.70
2023-02-05T17:18:19.247Z,1.57
2023-02-05T17:21:31.411Z,1.05
2023-02-05T17:24:34.271Z,4.35
2023-02-05T17:27:39.208Z,4.97
2023-02-05T17:30:44.632Z,2.33
2023-02-05T17:33:51.450Z,3.08
2023-02-05T17:36:54.289Z,3.35
2023-02-05T17:39:57.982Z,2.65
2023-02-05T17:43:00.749Z,3.13
2023-02-05T17:46:03.661Z,2.22
2023-02-05T17:49:06.607Z,1.20
2023-02-05T17:52:10.743Z,2.38
2023-02-05T17:55:15.896Z,3.85
2023-02-05T17:58:19.268Z,2.57
2023-02-05T18:01:23.138Z,3.28
2023-02-05T18:04:25.983Z,3.78
2023-02-05T18:07:35.465Z,2.97
2023-02-05T18:10:38.804Z,3.72
2023-02-05T18:13:42.297Z,1.95
2023-02-05T18:16:45.477Z,1.45
2023-02-05T18:19:48.319Z,4.40
2023-02-05T18:22:50.909Z,1.92
2023-02-05T18:25:53.750Z,2.13
2023-02-05T18:28:56.705Z,3.73
2023-02-05T18:31:59.499Z,3.20
2023-02-05T18:35:02.631Z,4.13
2023-02-05T18:38:06.625Z,4.35
2023-02-05T18:41:21.854Z,1.70
2023-02-05T18:44:25.184Z,2.85
2023-02-05T18:47:28.111Z,10.02
2023-02-05T18:50:30.844Z,14.97
2023-02-05T18:53:35.323Z,15.52
2023-02-05T18:56:38.406Z,7.13
2023-02-05T18:59:41.650Z,5.47
2023-02-05T19:02:44.590Z,4.93
2023-02-05T19:05:47.486Z,6.10
2023-02-05T19:08:50.086Z,6.13
2023-02-05T19:11:54.762Z,6.10
2023-02-05T19:14:58.168Z,3.42
2023-02-05T19:18:01.023Z,3.67
2023-02-05T19:21:09.161Z,5.60
2023-02-05T19:24:13.840Z,2.83
2023-02-05T19:27:18.113Z,4.03
2023-02-05T19:30:21.451Z,4.50
2023-02-05T19:33:24.922Z,2.20
2023-02-05T19:36:28.892Z,4.05
2023-02-05T19:39:31.661Z,3.15
2023-02-05T19:47:51.883Z,4.38
2023-02-05T19:51:00.923Z,1.85
2023-02-05T19:54:04.971Z,5.07
2023-02-05T19:57:07.950Z,4.95
2023-02-05T20:00:11.122Z,5.35
2023-02-05T20:03:17.708Z,4.23
2023-02-05T20:06:21.689Z,4.05
2023-02-05T20:09:25.959Z,2.97
2023-02-05T20:12:29.732Z,1.58
2023-02-05T20:15:36.583Z,2.88
2023-02-05T20:18:40.877Z,3.42
2023-02-05T20:21:44.733Z,2.67
2023-02-05T20:24:47.453Z,3.90
2023-02-05T20:27:50.582Z,1.90
2023-02-05T20:31:12.767Z,3.33
2023-02-05T20:34:18.697Z,3.97
2023-02-05T20:37:21.546Z,2.63
2023-02-05T20:40:24.489Z,2.95
2023-02-05T20:43:27.693Z,4.90
2023-02-05T20:47:53.120Z,2.80
2023-02-05T20:50:56.094Z,5.28
2023-02-05T20:54:04.754Z,5.80
2023-02-05T20:57:07.844Z,5.83
2023-02-05T21:00:11.430Z,5.55
2023-02-05T21:03:22.766Z,5.45
2023-02-05T21:06:27.139Z,5.53
2023-02-05T21:09:29.973Z,5.90
2023-02-05T21:12:32.707Z,5.80
2023-02-05T21:15:35.625Z,6.55
2023-02-05T21:18:40.393Z,5.63
2023-02-05T21:21:43.011Z,4.93
2023-02-05T21:24:45.635Z,4.18
2023-02-05T21:27:48.495Z,3.77
2023-02-05T21:30:51.276Z,3.92
2023-02-05T21:33:54.361Z,5.63
2023-02-05T21:36:57.185Z,4.77
2023-02-05T21:40:08.968Z,4.57
2023-02-05T21:43:15.737Z,3.60
2023-02-05T21:46:19.355Z,4.15
2023-02-05T21:49:22.063Z,4.97
2023-02-05T21:52:25.372Z,4.88
2023-02-05T21:55:28.019Z,2.35
2023-02-05T21:58:32.721Z,6.20
2023-02-05T22:01:38.702Z,5.47
2023-02-05T22:04:41.525Z,8.70
2023-02-05T22:07:44.026Z,7.30
2023-02-05T22:10:47.659Z,9.02
2023-02-05T22:13:52.019Z,11.13
2023-02-05T22:16:55.447Z,8.73
2023-02-05T22:19:58.132Z,7.65
2023-02-05T22:23:00.666Z,9.57
2023-02-05T22:26:04.073Z,10.93
2023-02-05T22:29:08.604Z,10.33
2023-02-05T22:32:11.476Z,16.17
2023-02-05T22:35:14.647Z,11.00
2023-02-05T22:38:17.131Z,8.00
2023-02-05T22:41:22.783Z,6.63
2023-02-05T22:44:25.183Z,7.05
2023-02-05T22:47:27.934Z,9.93
2023-02-05T22:50:30.583Z,9.02
2023-02-05T22:53:33.582Z,7.13
2023-02-05T22:56:37.310Z,6.70
2023-02-05T22:59:40.198Z,6.03
2023-02-05T23:02:42.989Z,6.40
2023-02-05T23:05:45.767Z,6.03
2023-02-05T23:08:53.590Z,7.83
2023-02-05T23:11:56.800Z,8.23
2023-02-05T23:14:59.267Z,9.63
2023-02-05T23:18:02.244Z,6.05
2023-02-05T23:21:14.364Z,8.57
2023-02-05T23:24:18.308Z,7.00
2023-02-05T23:27:20.978Z,8.32
2023-02-05T23:30:23.814Z,7.83
2023-02-05T23:33:26.532Z,7.88
2023-02-05T23:36:29.653Z,7.75
2023-02-05T23:39:32.117Z,7.63
2023-02-05T23:42:35.027Z,5.85
2023-02-05T23:45:37.616Z,5.88
2023-02-05T23:48:41.005Z,7.38
2023-02-05T23:51:44.417Z,6.53
2023-02-05T23:54:47.040Z,7.43
2023-02-05T23:57:49.776Z,6.68
